Time;durP1;ratioP1;P1;durP2;ratioP2;P2;SDS_P1;SDS_P2;PMS_P1;PMS_P2;Temp;Humidity;BMP_temperature;BMP_pressure;BME280_temperature;BME280_humidity;BME280_pressure;Samples;Min_cycle;Max_cycle;Signal;HPM_P1;HPM_P2
2022/07/24 00:01:39;;;;;;;;;;;;;;;20.45;84.81;98473.14;106545;1277;124834;-76
2022/07/24 00:04:07;;;;;;;;;;;;;;;20.33;85.23;98476.27;106094;1277;25274;-75
2022/07/24 00:06:34;;;;;;;;;;;;;;;20.28;85.65;98477.27;106374;1277;23614;-75
2022/07/24 00:09:00;;;;;;;;;;;;;;;20.27;86.06;98476.22;105894;1277;125312;-75
2022/07/24 00:11:30;;;;;;;;;;;;;;;20.29;86.10;98476.95;105997;1280;25510;-75
2022/07/24 00:13:57;;;;;;;;;;;;;;;20.29;85.88;98473.41;105933;1277;124590;-75
2022/07/24 00:16:25;;;;;;;;;;;;;;;20.24;85.74;98472.09;106103;1280;25133;-75
2022/07/24 00:18:51;;;;;;;;;;;;;;;20.16;85.92;98468.66;106193;1277;26606;-75
2022/07/24 00:21:17;;;;;;;;;;;;;;;20.09;86.13;98472.16;106097;1277;124805;-75
2022/07/24 00:23:44;;;;;;;;;;;;;;;20.09;86.44;98474.98;106322;1277;24483;-75
2022/07/24 00:26:11;;;;;;;;;;;;;;;20.11;86.68;98479.20;106065;1277;124763;-76
2022/07/24 00:28:37;;;;;;;;;;;;;;;20.15;86.66;98476.41;106127;1278;25301;-76
2022/07/24 00:31:05;;;;;;;;;;;;;;;20.18;86.75;98477.23;106158;1277;24922;-75
2022/07/24 00:33:31;;;;;;;;;;;;;;;20.20;86.52;98473.88;106323;1277;24265;-75
2022/07/24 00:35:58;;;;;;;;;;;;;;;20.21;86.67;98472.52;106120;1277;25430;-75
2022/07/24 00:38:27;;;;;;;;;;;;;;;20.22;86.62;98478.21;107297;1277;123929;-76
2022/07/24 00:40:55;;;;;;;;;;;;;;;20.23;86.65;98475.31;106104;1277;24329;-75
2022/07/24 00:43:22;;;;;;;;;;;;;;;20.25;86.48;98478.66;106045;1279;124918;-75
2022/07/24 00:45:49;;;;;;;;;;;;;;;20.24;86.25;98474.84;106144;1279;22551;-75
2022/07/24 00:48:16;;;;;;;;;;;;;;;20.24;86.47;98478.45;106102;1277;22555;-75
2022/07/24 00:50:51;;;;;;;;;;;;;;;20.25;86.49;98484.17;105856;1280;124909;-75
2022/07/24 00:53:18;;;;;;;;;;;;;;;20.25;86.57;98489.41;106055;1278;22694;-75
2022/07/24 00:55:46;;;;;;;;;;;;;;;20.24;86.35;98482.20;106440;1277;124524;-75
2022/07/24 00:58:12;;;;;;;;;;;;;;;20.22;86.35;98483.73;106025;1280;24266;-75
2022/07/24 01:00:39;;;;;;;;;;;;;;;20.19;86.24;98487.83;106078;1280;24201;-75
2022/07/24 01:03:05;;;;;;;;;;;;;;;20.19;86.37;98488.56;105874;1280;125448;-75
2022/07/24 01:05:35;;;;;;;;;;;;;;;20.13;86.15;98487.30;106014;1280;22637;-75
2022/07/24 01:08:02;;;;;;;;;;;;;;;20.09;86.30;98487.98;105855;1277;125437;-75
2022/07/24 01:10:28;;;;;;;;;;;;;;;20.06;86.32;98487.83;106101;1277;22534;-75
2022/07/24 01:12:55;;;;;;;;;;;;;;;20.05;86.57;98484.53;106236;1277;22530;-75
2022/07/24 01:15:21;;;;;;;;;;;;;;;20.05;86.71;98480.14;105941;1277;124007;-75
2022/07/24 01:17:48;;;;;;;;;;;;;;;20.03;86.69;98474.83;106229;1279;22816;-75
2022/07/24 01:20:14;;;;;;;;;;;;;;;19.99;86.33;98474.19;106051;1277;125026;-75
2022/07/24 01:22:41;;;;;;;;;;;;;;;19.92;86.57;98475.92;106364;1277;26616;-75
2022/07/24 01:25:10;;;;;;;;;;;;;;;19.85;86.51;98475.44;106208;1277;125281;-75
2022/07/24 01:27:37;;;;;;;;;;;;;;;19.80;86.81;98473.51;106096;1279;24410;-75
2022/07/24 01:30:04;;;;;;;;;;;;;;;19.77;86.88;98472.07;106041;1277;24336;-75
2022/07/24 01:32:30;;;;;;;;;;;;;;;19.74;87.12;98472.89;106192;1277;125334;-75
2022/07/24 01:34:57;;;;;;;;;;;;;;;19.69;86.93;98476.10;106405;1277;22579;-75
2022/07/24 01:37:23;;;;;;;;;;;;;;;19.65;87.13;98471.22;105906;1277;124544;-74
2022/07/24 01:39:49;;;;;;;;;;;;;;;19.61;87.21;98475.15;105833;1277;22712;-75
2022/07/24 01:42:16;;;;;;;;;;;;;;;19.53;87.36;98470.33;106639;1277;24256;-75
2022/07/24 01:44:42;;;;;;;;;;;;;;;19.51;87.62;98470.25;106077;1277;125511;-75
2022/07/24 01:47:09;;;;;;;;;;;;;;;19.50;87.45;98471.92;106257;1277;22595;-75
2022/07/24 01:49:37;;;;;;;;;;;;;;;19.49;87.80;98468.02;106101;1277;125611;-75
2022/07/24 01:52:04;;;;;;;;;;;;;;;19.49;88.00;98466.14;106215;1277;22559;-75
2022/07/24 01:54:34;;;;;;;;;;;;;;;19.50;87.94;98468.15;106250;1277;23934;-75
2022/07/24 01:57:01;;;;;;;;;;;;;;;19.53;87.79;98474.70;105830;1280;125319;-75
2022/07/24 01:59:28;;;;;;;;;;;;;;;19.45;87.43;98475.74;106374;1277;23347;-75
2022/07/24 02:01:56;;;;;;;;;;;;;;;19.42;87.64;98478.02;105961;1277;125468;-75
2022/07/24 02:04:22;;;;;;;;;;;;;;;19.36;87.53;98474.39;106016;1277;23906;-75
2022/07/24 02:06:49;;;;;;;;;;;;;;;19.24;87.50;98478.77;106624;1277;24580;-75
2022/07/24 02:09:15;;;;;;;;;;;;;;;19.14;87.71;98475.85;105860;1280;125366;-75
2022/07/24 02:11:41;;;;;;;;;;;;;;;19.05;88.32;98478.04;106038;1280;22656;-75
2022/07/24 02:14:08;;;;;;;;;;;;;;;18.95;88.52;98478.91;106555;1280;125528;-75
2022/07/24 02:16:34;;;;;;;;;;;;;;;18.88;89.19;98485.59;106329;1280;22646;-75
2022/07/24 02:19:01;;;;;;;;;;;;;;;18.79;89.54;98494.79;105901;1280;24233;-74
2022/07/24 02:21:28;;;;;;;;;;;;;;;18.70;90.03;98495.90;105838;1280;125742;-75
2022/07/24 02:23:55;;;;;;;;;;;;;;;18.63;90.35;98497.05;106097;1279;22709;-75
2022/07/24 02:26:21;;;;;;;;;;;;;;;18.57;90.50;98499.12;105860;1278;125108;-76
2022/07/24 02:28:48;;;;;;;;;;;;;;;18.53;90.65;98494.82;106087;1279;22556;-76
2022/07/24 02:31:15;;;;;;;;;;;;;;;18.49;90.68;98500.62;105913;1277;124847;-75
2022/07/24 02:33:41;;;;;;;;;;;;;;;18.44;90.76;98501.89;106213;1277;23187;-75
2022/07/24 02:36:08;;;;;;;;;;;;;;;18.40;90.59;98505.96;106225;1277;25420;-75
2022/07/24 02:38:34;;;;;;;;;;;;;;;18.37;90.59;98511.84;106309;1277;124798;-75
2022/07/24 02:41:03;;;;;;;;;;;;;;;18.35;90.50;98519.65;106392;1277;22565;-75
2022/07/24 02:43:29;;;;;;;;;;;;;;;18.33;90.45;98525.84;106268;1277;124902;-74
2022/07/24 02:45:55;;;;;;;;;;;;;;;18.34;90.42;98525.66;105801;1280;25317;-75
2022/07/24 02:48:24;;;;;;;;;;;;;;;18.39;90.54;98529.58;106125;1277;22538;-75
2022/07/24 02:50:51;;;;;;;;;;;;;;;18.46;90.67;98537.65;106146;1280;125204;-75
2022/07/24 02:53:17;;;;;;;;;;;;;;;18.54;90.47;98538.33;105931;1277;25423;-75
2022/07/24 02:55:44;;;;;;;;;;;;;;;18.60;90.50;98538.57;105992;1280;125122;-75
2022/07/24 02:58:11;;;;;;;;;;;;;;;18.66;90.36;98541.42;106038;1280;24741;-75
2022/07/24 03:00:37;;;;;;;;;;;;;;;18.75;90.24;98546.32;105829;1280;23441;-75
2022/07/24 03:03:04;;;;;;;;;;;;;;;18.82;90.11;98547.35;105771;1280;124555;-75
2022/07/24 03:05:30;;;;;;;;;;;;;;;18.89;89.82;98554.73;106017;1277;22589;-75
2022/07/24 03:07:56;;;;;;;;;;;;;;;18.93;89.29;98558.73;105749;1280;124997;-75
2022/07/24 03:10:22;;;;;;;;;;;;;;;18.95;88.70;98559.77;106146;1278;22545;-75
2022/07/24 03:12:51;;;;;;;;;;;;;;;18.95;88.31;98561.75;106198;1277;22545;-75
2022/07/24 03:15:17;;;;;;;;;;;;;;;18.95;87.98;98562.08;105924;1279;124790;-75
2022/07/24 03:17:48;;;;;;;;;;;;;;;18.92;87.57;98561.89;105969;1280;22550;-75
2022/07/24 03:20:15;;;;;;;;;;;;;;;18.88;87.27;98565.65;106091;1277;124033;-75
2022/07/24 03:22:41;;;;;;;;;;;;;;;18.83;87.18;98569.36;105850;1280;24257;-74
2022/07/24 03:25:08;;;;;;;;;;;;;;;18.76;86.84;98571.85;106154;1277;124648;-75
2022/07/24 03:27:34;;;;;;;;;;;;;;;18.68;86.77;98573.27;106033;1277;22553;-74
2022/07/24 03:30:02;;;;;;;;;;;;;;;18.62;86.83;98572.86;105897;1280;24424;-75
2022/07/24 03:32:29;;;;;;;;;;;;;;;18.56;86.82;98573.83;105658;1280;125629;-74
2022/07/24 03:34:56;;;;;;;;;;;;;;;18.50;86.94;98576.04;105829;1281;24206;-75
2022/07/24 03:37:22;;;;;;;;;;;;;;;18.39;87.03;98575.45;105842;1280;125151;-74
2022/07/24 03:39:48;;;;;;;;;;;;;;;18.28;87.22;98575.76;105810;1280;24313;-75
2022/07/24 03:42:15;;;;;;;;;;;;;;;18.16;87.40;98576.27;106312;1280;22689;-74
2022/07/24 03:44:42;;;;;;;;;;;;;;;18.07;87.76;98573.50;105853;1280;125361;-75
2022/07/24 03:47:08;;;;;;;;;;;;;;;17.99;87.99;98577.16;105927;1277;23495;-75
2022/07/24 03:49:35;;;;;;;;;;;;;;;17.93;88.27;98578.48;105866;1277;125046;-75
2022/07/24 03:52:01;;;;;;;;;;;;;;;17.89;88.46;98582.92;106198;1280;22617;-75
2022/07/24 03:54:27;;;;;;;;;;;;;;;17.87;88.56;98591.38;106009;1277;22545;-76
2022/07/24 03:56:54;;;;;;;;;;;;;;;17.82;88.52;98589.92;106002;1277;126984;-75
2022/07/24 03:59:21;;;;;;;;;;;;;;;17.78;88.64;98593.91;105995;1277;22551;-76
2022/07/24 04:01:47;;;;;;;;;;;;;;;17.73;88.95;98596.55;105793;1278;124908;-75
2022/07/24 04:04:14;;;;;;;;;;;;;;;17.68;89.05;98601.65;106129;1277;22549;-76
2022/07/24 04:06:41;;;;;;;;;;;;;;;17.67;89.20;98604.30;106598;1277;22576;-75
2022/07/24 04:09:08;;;;;;;;;;;;;;;17.66;89.29;98609.05;106223;1278;125750;-76
2022/07/24 04:11:34;;;;;;;;;;;;;;;17.67;89.26;98609.44;105987;1280;22531;-75
2022/07/24 04:14:01;;;;;;;;;;;;;;;17.68;89.36;98611.02;106005;1278;125328;-76
2022/07/24 04:16:28;;;;;;;;;;;;;;;17.71;89.52;98615.40;106220;1277;22782;-75
2022/07/24 04:18:54;;;;;;;;;;;;;;;17.74;89.44;98617.90;106290;1277;23379;-75
2022/07/24 04:21:23;;;;;;;;;;;;;;;17.81;89.45;98621.83;106298;1277;125203;-75
2022/07/24 04:23:50;;;;;;;;;;;;;;;17.85;89.12;98620.25;106202;1277;25364;-75
2022/07/24 04:26:19;;;;;;;;;;;;;;;17.89;88.97;98619.46;105955;1280;124767;-75
2022/07/24 04:28:46;;;;;;;;;;;;;;;17.90;88.83;98626.63;106101;1277;25315;-75
2022/07/24 04:31:13;;;;;;;;;;;;;;;17.93;88.94;98631.45;106225;1277;124833;-75
2022/07/24 04:33:42;;;;;;;;;;;;;;;17.95;88.66;98636.38;106275;1278;22553;-75
2022/07/24 04:36:08;;;;;;;;;;;;;;;17.96;88.65;98638.74;106083;1278;22571;-74
2022/07/24 04:38:35;;;;;;;;;;;;;;;17.97;88.67;98641.98;105957;1277;124710;-74
2022/07/24 04:41:02;;;;;;;;;;;;;;;18.00;88.74;98649.45;106526;1277;22570;-75
2022/07/24 04:43:28;;;;;;;;;;;;;;;18.03;88.54;98653.84;106032;1277;126709;-75
2022/07/24 04:45:55;;;;;;;;;;;;;;;18.05;88.17;98653.71;106368;1277;22724;-75
2022/07/24 04:48:21;;;;;;;;;;;;;;;18.06;87.69;98654.09;106314;1277;22540;-75
2022/07/24 04:50:48;;;;;;;;;;;;;;;18.07;87.39;98656.27;106209;1277;125069;-75
2022/07/24 04:53:14;;;;;;;;;;;;;;;18.08;87.18;98656.09;106153;1277;22665;-75
2022/07/24 04:55:41;;;;;;;;;;;;;;;18.08;86.93;98654.29;106183;1278;125183;-75
2022/07/24 04:58:07;;;;;;;;;;;;;;;18.09;87.02;98655.77;106660;1277;22551;-75
2022/07/24 05:00:34;;;;;;;;;;;;;;;18.12;86.54;98659.27;106201;1277;22530;-75
2022/07/24 05:03:00;;;;;;;;;;;;;;;18.13;86.36;98659.75;106283;1277;124367;-75
2022/07/24 05:05:27;;;;;;;;;;;;;;;18.15;86.28;98659.95;106363;1277;22562;-75
2022/07/24 05:07:53;;;;;;;;;;;;;;;18.17;86.54;98661.26;106085;1280;125262;-75
2022/07/24 05:10:20;;;;;;;;;;;;;;;18.19;86.09;98660.31;106042;1280;25362;-75
2022/07/24 05:12:46;;;;;;;;;;;;;;;18.19;85.87;98659.53;106118;1277;23906;-75
2022/07/24 05:15:13;;;;;;;;;;;;;;;18.23;86.10;98663.30;106023;1277;124794;-75
2022/07/24 05:17:40;;;;;;;;;;;;;;;18.26;86.09;98665.35;105989;1281;25369;-75
2022/07/24 05:20:07;;;;;;;;;;;;;;;18.30;85.43;98667.98;106325;1280;124673;-75
2022/07/24 05:22:34;;;;;;;;;;;;;;;18.31;84.97;98664.39;105959;1277;25380;-75
2022/07/24 05:25:00;;;;;;;;;;;;;;;18.34;84.91;98664.08;106043;1277;22687;-75
2022/07/24 05:27:27;;;;;;;;;;;;;;;18.37;84.77;98662.23;106108;1277;124644;-75
2022/07/24 05:29:54;;;;;;;;;;;;;;;18.41;84.45;98664.28;106033;1280;22552;-75
2022/07/24 05:32:21;;;;;;;;;;;;;;;18.42;83.18;98669.11;106143;1278;125129;-75
2022/07/24 05:34:49;;;;;;;;;;;;;;;18.44;83.23;98668.06;106200;1277;24316;-75
2022/07/24 05:37:16;;;;;;;;;;;;;;;18.47;82.88;98665.21;106330;1277;124881;-75
2022/07/24 05:39:42;;;;;;;;;;;;;;;18.51;82.50;98663.08;106024;1281;24385;-75
2022/07/24 05:42:09;;;;;;;;;;;;;;;18.54;82.25;98661.94;106429;1277;22655;-75
2022/07/24 05:44:37;;;;;;;;;;;;;;;18.58;82.31;98662.77;106137;1277;124182;-75
2022/07/24 05:47:04;;;;;;;;;;;;;;;18.63;81.24;98660.52;106574;1276;22550;-75
2022/07/24 05:49:31;;;;;;;;;;;;;;;18.64;80.68;98664.97;105861;1277;124957;-77
2022/07/24 05:51:57;;;;;;;;;;;;;;;18.67;80.88;98670.90;106201;1277;25376;-77
2022/07/24 05:54:36;;;;;;;;;;;;;;;18.72;80.48;98668.70;106053;1281;22594;-77
2022/07/24 05:57:03;;;;;;;;;;;;;;;18.76;79.66;98670.96;106178;1278;124154;-77
2022/07/24 05:59:29;;;;;;;;;;;;;;;18.80;79.34;98668.83;106298;1277;22561;-76
2022/07/24 06:01:56;;;;;;;;;;;;;;;18.84;78.46;98671.73;106059;1277;124425;-76
2022/07/24 06:04:23;;;;;;;;;;;;;;;18.87;78.11;98671.31;106010;1278;25414;-76
2022/07/24 06:06:50;;;;;;;;;;;;;;;18.90;77.70;98672.43;106308;1278;24262;-75
2022/07/24 06:09:16;;;;;;;;;;;;;;;18.95;77.62;98671.65;105961;1278;124635;-76
2022/07/24 06:11:43;;;;;;;;;;;;;;;19.01;75.94;98680.46;106091;1277;22562;-76
2022/07/24 06:14:10;;;;;;;;;;;;;;;19.04;75.05;98679.27;106357;1278;124604;-76
2022/07/24 06:16:37;;;;;;;;;;;;;;;19.08;74.21;98676.63;105978;1278;22525;-75
2022/07/24 06:19:03;;;;;;;;;;;;;;;19.12;74.18;98679.27;106001;1281;24359;-76
2022/07/24 06:21:30;;;;;;;;;;;;;;;19.20;73.13;98680.45;106138;1277;124847;-76
2022/07/24 06:23:56;;;;;;;;;;;;;;;19.26;71.05;98678.05;106327;1277;24382;-77
2022/07/24 06:26:23;;;;;;;;;;;;;;;19.33;71.84;98683.08;106007;1281;125351;-75
2022/07/24 06:28:50;;;;;;;;;;;;;;;19.39;70.70;98683.67;106490;1278;24227;-76
2022/07/24 06:31:16;;;;;;;;;;;;;;;19.45;71.77;98687.23;105840;1281;124632;-76
2022/07/24 06:33:43;;;;;;;;;;;;;;;19.52;71.06;98687.35;106032;1278;22552;-76
2022/07/24 06:36:10;;;;;;;;;;;;;;;19.55;68.82;98686.20;106061;1277;25253;-76
2022/07/24 06:38:37;;;;;;;;;;;;;;;19.58;68.58;98686.27;106167;1278;124488;-77
2022/07/24 06:41:03;;;;;;;;;;;;;;;19.60;67.86;98692.36;106062;1278;22560;-77
2022/07/24 06:43:30;;;;;;;;;;;;;;;19.63;68.17;98692.55;105938;1278;124432;-77
2022/07/24 06:45:57;;;;;;;;;;;;;;;19.68;67.68;98691.30;106075;1278;24449;-76
2022/07/24 06:48:24;;;;;;;;;;;;;;;19.74;66.47;98690.79;106012;1280;25406;-80
2022/07/24 06:50:52;;;;;;;;;;;;;;;19.79;66.72;98689.02;106561;1278;124641;-77
2022/07/24 06:53:20;;;;;;;;;;;;;;;19.82;66.40;98691.23;106275;1281;22685;-80
2022/07/24 06:55:47;;;;;;;;;;;;;;;19.88;66.99;98689.83;106445;1281;124324;-80
2022/07/24 06:58:14;;;;;;;;;;;;;;;19.96;67.33;98695.23;106651;1277;24269;-76
2022/07/24 07:00:40;;;;;;;;;;;;;;;20.07;63.54;98693.39;106060;1281;22539;-80
2022/07/24 07:03:08;;;;;;;;;;;;;;;20.12;62.65;98687.83;106149;1277;124201;-78
2022/07/24 07:05:35;;;;;;;;;;;;;;;20.13;62.07;98691.45;105886;1278;24281;-79
2022/07/24 07:08:02;;;;;;;;;;;;;;;20.15;61.68;98693.09;106519;1277;123959;-83
2022/07/24 07:10:29;;;;;;;;;;;;;;;20.20;61.89;98693.98;106883;1277;26613;-80
2022/07/24 07:12:56;;;;;;;;;;;;;;;20.27;61.11;98696.70;106421;1277;23038;-79
2022/07/24 07:15:23;;;;;;;;;;;;;;;20.36;61.05;98697.64;106286;1277;123859;-79
2022/07/24 07:17:50;;;;;;;;;;;;;;;20.43;60.25;98693.81;106760;1277;25353;-79
2022/07/24 07:20:17;;;;;;;;;;;;;;;20.50;59.59;98700.05;107103;1277;124563;-79
2022/07/24 07:22:44;;;;;;;;;;;;;;;20.54;60.17;98699.88;106435;1280;23940;-81
2022/07/24 07:25:11;;;;;;;;;;;;;;;20.58;59.44;98700.69;106149;1281;124293;-79
2022/07/24 07:27:39;;;;;;;;;;;;;;;20.64;58.19;98703.74;106551;1278;22586;-80
2022/07/24 07:30:06;;;;;;;;;;;;;;;20.72;57.28;98704.27;105964;1280;25315;-81
2022/07/24 07:32:32;;;;;;;;;;;;;;;20.81;56.19;98709.69;105892;1278;124532;-81
2022/07/24 07:34:59;;;;;;;;;;;;;;;20.90;56.89;98704.21;106433;1278;24348;-82
2022/07/24 07:37:26;;;;;;;;;;;;;;;20.93;57.27;98706.23;106160;1278;124200;-81
2022/07/24 07:39:52;;;;;;;;;;;;;;;21.05;57.65;98704.58;106071;1280;22544;-83
2022/07/24 07:42:19;;;;;;;;;;;;;;;21.18;57.30;98703.69;106411;1277;25451;-80
2022/07/24 07:44:48;;;;;;;;;;;;;;;21.31;57.11;98703.24;106129;1277;124215;-81
2022/07/24 07:47:15;;;;;;;;;;;;;;;21.46;56.74;98710.15;106117;1280;22542;-80
2022/07/24 07:49:41;;;;;;;;;;;;;;;21.56;56.87;98704.16;106156;1277;124354;-81
2022/07/24 07:52:08;;;;;;;;;;;;;;;21.63;56.30;98704.59;106887;1277;25637;-82
2022/07/24 07:54:36;;;;;;;;;;;;;;;21.69;56.27;98704.44;106963;1277;24287;-82
2022/07/24 07:57:03;;;;;;;;;;;;;;;21.74;55.33;98707.86;106451;1277;123995;-80
2022/07/24 07:59:29;;;;;;;;;;;;;;;21.81;55.41;98712.08;106287;1278;24019;-81
2022/07/24 08:01:56;;;;;;;;;;;;;;;21.91;55.40;98712.68;106300;1277;124494;-77
2022/07/24 08:04:22;;;;;;;;;;;;;;;22.05;55.62;98714.55;106490;1277;22484;-78
2022/07/24 08:06:49;;;;;;;;;;;;;;;22.23;55.51;98712.89;107254;1277;22548;-77
2022/07/24 08:09:16;;;;;;;;;;;;;;;22.31;53.72;98717.35;106337;1277;123923;-77
2022/07/24 08:11:43;;;;;;;;;;;;;;;22.23;52.14;98713.91;106173;1280;24228;-81
2022/07/24 08:14:09;;;;;;;;;;;;;;;22.28;52.62;98713.17;106479;1280;124217;-80
2022/07/24 08:16:36;;;;;;;;;;;;;;;22.44;53.34;98714.67;106170;1278;26545;-79
2022/07/24 08:19:03;;;;;;;;;;;;;;;22.51;52.79;98718.15;106088;1278;24227;-80
2022/07/24 08:21:31;;;;;;;;;;;;;;;22.54;53.19;98717.29;106484;1277;123813;-78
2022/07/24 08:24:00;;;;;;;;;;;;;;;22.38;52.56;98718.89;106552;1277;22599;-81
2022/07/24 08:26:30;;;;;;;;;;;;;;;22.19;53.27;98720.98;106475;1280;123991;-82
2022/07/24 08:28:57;;;;;;;;;;;;;;;22.01;52.94;98719.16;106857;1277;26678;-81
2022/07/24 08:31:25;;;;;;;;;;;;;;;21.86;53.01;98720.56;106495;1277;124278;-80
2022/07/24 08:33:52;;;;;;;;;;;;;;;21.85;53.22;98719.14;106510;1280;22553;-80
2022/07/24 08:36:18;;;;;;;;;;;;;;;22.07;53.91;98719.86;106476;1277;22576;-80
2022/07/24 08:38:48;;;;;;;;;;;;;;;22.38;53.36;98716.93;106626;1280;124626;-80
2022/07/24 08:41:15;;;;;;;;;;;;;;;22.69;51.70;98720.25;106094;1280;22754;-82
2022/07/24 08:43:42;;;;;;;;;;;;;;;22.81;51.83;98724.69;106540;1277;124238;-80
2022/07/24 08:46:11;;;;;;;;;;;;;;;22.87;51.45;98725.52;106788;1278;25324;-77
2022/07/24 08:48:42;;;;;;;;;;;;;;;22.86;51.80;98727.71;106549;1277;23735;-79
2022/07/24 08:51:09;;;;;;;;;;;;;;;22.77;52.15;98727.02;106275;1280;124488;-80
2022/07/24 08:53:36;;;;;;;;;;;;;;;22.61;51.40;98727.55;106671;1280;22541;-80
2022/07/24 08:56:03;;;;;;;;;;;;;;;22.47;51.85;98728.59;106683;1277;123982;-78
2022/07/24 08:58:29;;;;;;;;;;;;;;;22.43;51.91;98728.70;107208;1277;22565;-78
2022/07/24 09:00:56;;;;;;;;;;;;;;;22.52;52.80;98724.83;106366;1277;25729;-82
2022/07/24 09:03:23;;;;;;;;;;;;;;;22.63;52.10;98727.56;106072;1278;123989;-78
2022/07/24 09:05:54;;;;;;;;;;;;;;;22.61;51.93;98726.52;106560;1277;22572;-78
2022/07/24 09:08:21;;;;;;;;;;;;;;;22.47;51.17;98724.79;106494;1277;123923;-78
2022/07/24 09:10:53;;;;;;;;;;;;;;;22.49;51.83;98727.27;106492;1277;25264;-78
2022/07/24 09:13:24;;;;;;;;;;;;;;;22.78;50.78;98724.83;106410;1277;124192;-79
2022/07/24 09:15:51;;;;;;;;;;;;;;;23.11;51.70;98722.30;106230;1277;22730;-80
2022/07/24 09:18:28;;;;;;;;;;;;;;;23.18;50.89;98727.58;105966;1280;25248;-79
2022/07/24 09:20:55;;;;;;;;;;;;;;;23.16;48.91;98732.79;106258;1277;124482;-79
2022/07/24 09:23:22;;;;;;;;;;;;;;;23.29;47.67;98730.25;106342;1278;22561;-79
2022/07/24 09:25:50;;;;;;;;;;;;;;;23.56;48.26;98731.39;105996;1278;124129;-79
2022/07/24 09:28:19;;;;;;;;;;;;;;;23.87;48.62;98728.36;106428;1277;22679;-79
2022/07/24 09:30:48;;;;;;;;;;;;;;;24.17;48.76;98730.95;106424;1277;22722;-78
2022/07/24 09:33:21;;;;;;;;;;;;;;;24.39;48.31;98731.52;106296;1277;124345;-80
2022/07/24 09:35:51;;;;;;;;;;;;;;;24.36;47.19;98733.95;106541;1277;22571;-80
2022/07/24 09:38:22;;;;;;;;;;;;;;;24.49;46.70;98736.08;106424;1277;123851;-80
2022/07/24 09:40:56;;;;;;;;;;;;;;;24.50;45.59;98735.79;106320;1280;22526;-82
2022/07/24 09:43:36;;;;;;;;;;;;;;;24.31;44.42;98738.88;106368;1277;124664;-79
2022/07/24 09:46:19;;;;;;;;;;;;;;;24.24;44.37;98739.63;106346;1276;22581;-79
2022/07/24 09:49:04;;;;;;;;;;;;;;;24.35;44.66;98732.54;106499;1277;22608;-79
2022/07/24 09:51:43;;;;;;;;;;;;;;;24.48;46.55;98726.81;106428;1277;22543;-79
2022/07/24 09:54:29;;;;;;;;;;;;;;;24.35;45.69;98726.19;106419;1277;25196;-79
2022/07/24 09:57:17;;;;;;;;;;;;;;;24.02;45.78;98723.50;106901;1277;124177;-79
2022/07/24 09:59:58;;;;;;;;;;;;;;;23.75;46.76;98725.20;106511;1277;22531;-81
2022/07/24 10:02:26;;;;;;;;;;;;;;;23.90;47.64;98721.36;106060;1278;124194;-79
2022/07/24 10:04:53;;;;;;;;;;;;;;;24.25;47.50;98721.59;106315;1277;23956;-79
2022/07/24 10:07:20;;;;;;;;;;;;;;;24.59;46.39;98719.77;106357;1277;124200;-79
2022/07/24 10:09:48;;;;;;;;;;;;;;;24.86;45.70;98719.40;106422;1277;22523;-79
2022/07/24 10:12:17;;;;;;;;;;;;;;;24.96;44.69;98723.40;106142;1277;25465;-80
2022/07/24 10:14:44;;;;;;;;;;;;;;;24.87;44.45;98725.88;106167;1277;124094;-79
2022/07/24 10:17:11;;;;;;;;;;;;;;;24.96;44.89;98722.14;106465;1277;22744;-80
2022/07/24 10:19:40;;;;;;;;;;;;;;;25.09;44.63;98716.05;106220;1277;124398;-80
2022/07/24 10:22:09;;;;;;;;;;;;;;;25.15;44.97;98715.20;106121;1277;22543;-81
2022/07/24 10:24:50;;;;;;;;;;;;;;;25.12;45.14;98712.99;106561;1277;22572;-80
2022/07/24 10:27:25;;;;;;;;;;;;;;;25.27;44.90;98711.13;106185;1277;124472;-80
2022/07/24 10:29:53;;;;;;;;;;;;;;;25.57;44.63;98703.64;106362;1277;23980;-81
2022/07/24 10:32:21;;;;;;;;;;;;;;;25.87;44.38;98701.16;106186;1277;124116;-81
2022/07/24 10:34:51;;;;;;;;;;;;;;;26.13;43.75;98702.66;106200;1277;24327;-80
2022/07/24 10:37:32;;;;;;;;;;;;;;;26.25;41.64;98696.81;105972;1277;124636;-79
2022/07/24 10:40:15;;;;;;;;;;;;;;;26.21;42.38;98699.63;106728;1277;25261;-79
2022/07/24 10:42:56;;;;;;;;;;;;;;;26.07;42.34;98699.76;106460;1277;24226;-81
2022/07/24 10:45:22;;;;;;;;;;;;;;;26.19;40.62;98697.87;106265;1277;125126;-80
2022/07/24 10:47:55;;;;;;;;;;;;;;;26.29;40.06;98695.45;105950;1280;26621;-81
2022/07/24 10:50:22;;;;;;;;;;;;;;;26.25;41.21;98694.40;106325;1277;123905;-79
2022/07/24 10:52:49;;;;;;;;;;;;;;;26.46;40.94;98692.83;105995;1277;25378;-83
2022/07/24 10:55:29;;;;;;;;;;;;;;;26.67;41.58;98692.63;106210;1277;124191;-80
2022/07/24 10:58:01;;;;;;;;;;;;;;;26.88;40.39;98691.13;106096;1277;22698;-80
2022/07/24 11:00:35;;;;;;;;;;;;;;;27.04;40.05;98685.98;105919;1277;25580;-82
2022/07/24 11:03:04;;;;;;;;;;;;;;;27.18;40.05;98685.23;106566;1277;124248;-83
2022/07/24 11:05:36;;;;;;;;;;;;;;;27.36;40.20;98684.23;106303;1277;22729;-81
2022/07/24 11:08:11;;;;;;;;;;;;;;;27.55;40.13;98680.49;105838;1280;124013;-81
2022/07/24 11:10:48;;;;;;;;;;;;;;;27.67;40.47;98680.85;106234;1277;25663;-81
2022/07/24 11:13:31;;;;;;;;;;;;;;;27.57;41.14;98681.61;106108;1277;124312;-80
2022/07/24 11:16:18;;;;;;;;;;;;;;;27.65;40.31;98679.76;106333;1277;25401;-80
2022/07/24 11:18:48;;;;;;;;;;;;;;;27.81;39.44;98680.08;106175;1277;24214;-82
2022/07/24 11:21:45;;;;;;;;;;;;;;;27.76;37.66;98673.86;106223;1277;124096;-81
2022/07/24 11:24:22;;;;;;;;;;;;;;;27.65;37.84;98673.67;106356;1280;22535;-81
2022/07/24 11:26:51;;;;;;;;;;;;;;;27.55;38.56;98670.74;106353;1277;124222;-82
2022/07/24 11:29:23;;;;;;;;;;;;;;;27.42;38.12;98667.33;106405;1277;22855;-81
2022/07/24 11:31:53;;;;;;;;;;;;;;;27.27;38.63;98671.06;106093;1277;125136;-80
2022/07/24 11:34:20;;;;;;;;;;;;;;;26.93;39.37;98668.70;106445;1277;25301;-81
2022/07/24 11:36:49;;;;;;;;;;;;;;;26.78;40.58;98670.17;105815;1277;24380;-82
2022/07/24 11:39:16;;;;;;;;;;;;;;;26.78;42.41;98671.36;106104;1277;124051;-80
2022/07/24 11:41:50;;;;;;;;;;;;;;;26.88;43.87;98669.96;106179;1277;22740;-84
2022/07/24 11:44:31;;;;;;;;;;;;;;;27.10;41.62;98672.43;106391;1277;124570;-80
2022/07/24 11:47:00;;;;;;;;;;;;;;;27.00;41.44;98664.61;106623;1277;22610;-80
2022/07/24 11:49:27;;;;;;;;;;;;;;;26.75;41.39;98669.67;105907;1280;125389;-80
2022/07/24 11:51:55;;;;;;;;;;;;;;;26.51;41.49;98664.31;106360;1277;22548;-80
2022/07/24 11:54:34;;;;;;;;;;;;;;;26.52;41.78;98660.04;102065;1277;10374050;-82
2022/07/24 11:57:15;;;;;;;;;;;;;;;26.92;41.87;98660.81;105909;1277;124816;-83
2022/07/24 11:59:44;;;;;;;;;;;;;;;27.16;40.46;98657.20;106997;1277;22576;-81
2022/07/24 12:02:22;;;;;;;;;;;;;;;27.47;40.23;98652.37;107788;1277;124466;-80
2022/07/24 12:04:50;;;;;;;;;;;;;;;27.67;39.40;98652.39;106531;1277;25457;-82
2022/07/24 12:07:25;;;;;;;;;;;;;;;27.62;38.20;98657.54;106637;1277;124086;-81
2022/07/24 12:09:56;;;;;;;;;;;;;;;27.61;38.47;98654.79;106320;1277;23348;-84
2022/07/24 12:12:23;;;;;;;;;;;;;;;27.54;39.45;98656.25;106259;1277;23907;-83
2022/07/24 12:15:00;;;;;;;;;;;;;;;27.29;39.67;98657.30;106504;1277;124136;-81
2022/07/24 12:17:28;;;;;;;;;;;;;;;27.09;38.55;98656.09;106356;1277;22531;-81
2022/07/24 12:19:57;;;;;;;;;;;;;;;26.77;38.31;98649.48;106758;1277;124686;-83
2022/07/24 12:22:25;;;;;;;;;;;;;;;26.63;38.64;98647.17;106390;1277;22619;-81
2022/07/24 12:24:52;;;;;;;;;;;;;;;26.54;39.17;98645.81;106559;1277;25265;-81
2022/07/24 12:27:33;;;;;;;;;;;;;;;26.79;40.33;98645.07;106119;1279;124046;-81
2022/07/24 12:30:00;;;;;;;;;;;;;;;27.17;39.62;98641.90;106279;1279;22654;-85
2022/07/24 12:32:27;;;;;;;;;;;;;;;27.55;38.69;98642.45;105997;1277;123852;-82
2022/07/24 12:34:53;;;;;;;;;;;;;;;27.87;38.11;98636.37;106015;1277;22681;-81
2022/07/24 12:37:21;;;;;;;;;;;;;;;28.20;38.18;98634.39;106784;1277;124041;-83
2022/07/24 12:39:52;;;;;;;;;;;;;;;28.20;37.03;98638.16;106114;1277;22549;-80